createdAt,value
2019-01-19T00:00:16.868Z,10.13
2019-01-19T00:03:39.396Z,7.63
2019-01-19T00:07:07.508Z,11.23
2019-01-19T00:11:08.120Z,8.93
2019-01-19T00:14:40.224Z,11.30
2019-01-19T00:18:29.154Z,8.60
2019-01-19T00:21:54.901Z,8.20
2019-01-19T00:25:15.869Z,11.27
2019-01-19T00:28:35.580Z,5.47
2019-01-19T00:31:49.933Z,9.30
2019-01-19T00:35:47.049Z,8.23
2019-01-19T00:39:08.725Z,12.03
2019-01-19T00:42:33.405Z,15.50
2019-01-19T00:46:17.772Z,14.73
2019-01-19T00:49:31.415Z,14.20
2019-01-19T00:53:12.280Z,7.93
2019-01-19T00:56:43.762Z,8.17
2019-01-19T00:59:52.372Z,10.50
2019-01-19T01:03:24.621Z,9.93
2019-01-19T01:06:59.275Z,8.10
2019-01-19T01:10:24.486Z,8.00
2019-01-19T01:14:11.099Z,9.87
2019-01-19T01:17:30.587Z,7.60
2019-01-19T01:21:20.650Z,7.63
2019-01-19T01:25:04.686Z,8.93
2019-01-19T01:28:38.173Z,5.43
2019-01-19T01:31:52.244Z,8.57
2019-01-19T01:35:32.773Z,11.13
2019-01-19T01:39:06.169Z,6.70
2019-01-19T01:42:45.077Z,9.33
2019-01-19T01:46:12.271Z,13.00
2019-01-19T01:49:46.765Z,7.83
2019-01-19T01:53:23.823Z,7.83
2019-01-19T01:56:27.827Z,8.90
2019-01-19T01:59:55.391Z,8.47
2019-01-19T02:03:46.468Z,9.20
2019-01-19T02:07:27.797Z,7.13
2019-01-19T02:11:26.972Z,9.13
2019-01-19T02:14:44.754Z,8.70
2019-01-19T02:18:27.126Z,10.50
2019-01-19T02:22:11.920Z,6.30
2019-01-19T02:26:01.519Z,5.17
2019-01-19T02:29:42.267Z,7.57
2019-01-19T02:33:18.678Z,5.07
2019-01-19T02:36:58.093Z,4.43
2019-01-19T02:40:30.504Z,7.47
2019-01-19T02:44:30.896Z,5.93
2019-01-19T02:48:08.550Z,12.53
2019-01-19T02:51:32.202Z,10.13
2019-01-19T02:55:36.161Z,19.37
2019-01-19T02:59:13.263Z,18.47
2019-01-19T03:02:36.950Z,27.03
2019-01-19T03:06:03.433Z,39.10
2019-01-19T03:09:41.706Z,39.53
2019-01-19T03:13:12.125Z,33.30
2019-01-19T03:16:39.713Z,62.67
2019-01-19T03:19:59.019Z,69.37
2019-01-19T03:23:15.383Z,45.93
2019-01-19T03:27:06.731Z,53.53
2019-01-19T03:31:06.809Z,43.73
2019-01-19T03:34:42.857Z,38.87
2019-01-19T03:38:14.178Z,32.50
2019-01-19T03:41:56.745Z,43.27
2019-01-19T03:45:23.001Z,27.33
2019-01-19T03:49:09.071Z,27.43
2019-01-19T03:52:24.582Z,41.97
2019-01-19T03:56:14.898Z,50.67
2019-01-19T03:59:35.735Z,43.87
2019-01-19T04:03:20.469Z,60.27
2019-01-19T04:06:42.708Z,44.63
2019-01-19T04:10:20.427Z,31.90
2019-01-19T04:14:00.391Z,20.03
2019-01-19T04:17:37.355Z,31.10
2019-01-19T04:21:20.948Z,28.47
2019-01-19T04:24:52.285Z,23.00
2019-01-19T04:27:56.438Z,32.17
2019-01-19T04:31:00.642Z,38.77
2019-01-19T04:34:05.069Z,39.57
2019-01-19T04:37:09.454Z,39.60
2019-01-19T04:40:14.275Z,38.67
2019-01-19T04:43:18.749Z,59.13
2019-01-19T04:46:23.118Z,56.27
2019-01-19T04:49:27.628Z,65.60
2019-01-19T04:52:31.527Z,59.47
2019-01-19T04:55:35.615Z,38.10
2019-01-19T04:58:39.622Z,38.07
2019-01-19T05:01:43.679Z,27.70
2019-01-19T05:04:47.494Z,29.77
2019-01-19T05:07:51.376Z,21.80
2019-01-19T05:10:55.268Z,27.80
2019-01-19T05:13:59.195Z,35.73
2019-01-19T05:17:03.463Z,43.63
2019-01-19T05:20:08.904Z,41.40
2019-01-19T05:23:12.791Z,32.67
2019-01-19T05:26:17.265Z,34.30
2019-01-19T05:29:21.085Z,49.03
2019-01-19T05:32:25.671Z,34.17
2019-01-19T05:35:30.156Z,41.87
2019-01-19T05:38:34.284Z,51.53
2019-01-19T05:41:38.267Z,42.80
2019-01-19T05:44:42.081Z,53.87
2019-01-19T05:47:45.961Z,34.03
2019-01-19T05:50:49.800Z,30.53
2019-01-19T05:53:53.699Z,33.83
2019-01-19T05:56:57.627Z,40.57
2019-01-19T06:00:01.524Z,43.67
2019-01-19T06:03:06.169Z,48.00
2019-01-19T06:06:10.439Z,44.17
2019-01-19T06:09:14.405Z,43.90
2019-01-19T06:12:18.276Z,53.13
2019-01-19T06:15:23.340Z,50.70
2019-01-19T06:18:28.330Z,47.50
2019-01-19T06:21:35.527Z,53.30
2019-01-19T06:24:39.524Z,52.07
2019-01-19T06:27:43.819Z,54.90
2019-01-19T06:30:47.611Z,54.00
2019-01-19T06:33:51.515Z,58.60
2019-01-19T06:36:55.478Z,66.17
2019-01-19T06:39:59.388Z,60.67
2019-01-19T06:43:03.197Z,66.50
2019-01-19T06:46:07.173Z,71.97
2019-01-19T06:49:11.107Z,67.63
2019-01-19T06:52:15.099Z,68.60
2019-01-19T06:55:22.077Z,86.50
2019-01-19T06:58:25.980Z,84.60
2019-01-19T07:01:29.944Z,75.77
2019-01-19T07:04:33.787Z,68.07
2019-01-19T07:07:37.761Z,75.50
2019-01-19T07:10:41.648Z,65.40
2019-01-19T07:13:45.466Z,62.57
2019-01-19T07:16:49.295Z,68.47
2019-01-19T07:19:53.158Z,64.17
2019-01-19T07:22:57.105Z,75.90
2019-01-19T07:26:00.933Z,67.13
2019-01-19T07:29:04.880Z,69.83
2019-01-19T07:32:08.880Z,74.63
2019-01-19T07:35:12.901Z,75.17
2019-01-19T07:38:16.821Z,105.90
2019-01-19T07:41:20.707Z,89.03
2019-01-19T07:44:24.556Z,73.50
2019-01-19T07:47:28.613Z,89.10
2019-01-19T07:50:32.493Z,81.83
2019-01-19T07:53:36.471Z,67.90
2019-01-19T07:56:40.387Z,88.80
2019-01-19T07:59:44.278Z,71.80
2019-01-19T08:02:48.218Z,110.20
2019-01-19T08:05:52.127Z,109.33
2019-01-19T08:08:56.890Z,82.00
2019-01-19T08:12:00.771Z,97.23
2019-01-19T08:15:05.711Z,104.23
2019-01-19T08:18:09.654Z,71.77
2019-01-19T08:21:13.486Z,88.73
2019-01-19T08:24:17.370Z,89.80
2019-01-19T08:27:21.257Z,78.90
2019-01-19T08:30:27.597Z,100.23
2019-01-19T08:33:31.693Z,86.80
2019-01-19T08:36:35.653Z,99.40
2019-01-19T08:39:39.619Z,76.17
2019-01-19T08:42:43.686Z,88.23
2019-01-19T08:45:49.627Z,80.53
2019-01-19T08:48:53.613Z,96.33
2019-01-19T08:51:57.503Z,81.23
2019-01-19T08:55:01.291Z,75.03
2019-01-19T08:58:05.580Z,72.57
2019-01-19T09:01:09.526Z,79.93
2019-01-19T09:04:13.425Z,76.63
2019-01-19T09:07:17.304Z,72.40
2019-01-19T09:10:21.674Z,72.60
2019-01-19T09:13:25.621Z,62.90
2019-01-19T09:16:29.575Z,63.03
2019-01-19T09:19:33.455Z,58.67
2019-01-19T09:22:37.432Z,51.40
2019-01-19T09:25:41.330Z,59.20
2019-01-19T09:28:45.262Z,53.27
2019-01-19T09:31:49.133Z,61.17
2019-01-19T09:34:53.019Z,48.20
2019-01-19T09:37:56.955Z,49.53
2019-01-19T09:41:01.031Z,47.53
2019-01-19T09:44:05.690Z,44.53
2019-01-19T09:47:09.749Z,37.20
2019-01-19T09:50:14.934Z,35.93
2019-01-19T09:53:18.827Z,33.60
2019-01-19T09:56:22.775Z,35.80
2019-01-19T09:59:26.668Z,34.00
2019-01-19T10:02:30.635Z,30.03
2019-01-19T10:05:34.635Z,34.30
2019-01-19T10:08:38.532Z,30.67
2019-01-19T10:11:42.483Z,33.53
2019-01-19T10:14:46.344Z,31.77
2019-01-19T10:17:50.408Z,29.47
2019-01-19T10:20:54.665Z,34.90
2019-01-19T10:23:58.629Z,36.93
2019-01-19T10:27:02.518Z,29.87
2019-01-19T10:30:09.445Z,30.80
2019-01-19T10:33:13.411Z,30.13
2019-01-19T10:36:17.282Z,31.13
2019-01-19T10:39:21.165Z,33.17
2019-01-19T10:42:25.042Z,28.17
2019-01-19T10:45:28.956Z,32.50
2019-01-19T10:48:32.836Z,32.83
2019-01-19T10:51:36.895Z,31.30
2019-01-19T10:54:40.879Z,28.03
2019-01-19T10:57:44.916Z,30.77
2019-01-19T11:00:48.808Z,29.07
2019-01-19T11:03:53.697Z,31.37
2019-01-19T11:06:57.597Z,40.17
2019-01-19T11:10:01.494Z,33.10
2019-01-19T11:13:05.556Z,33.00
2019-01-19T11:16:09.529Z,27.47
2019-01-19T11:19:13.413Z,30.67
2019-01-19T11:22:17.307Z,34.17
2019-01-19T11:25:21.240Z,32.63
2019-01-19T11:28:25.142Z,31.50
2019-01-19T11:31:29.024Z,26.43
2019-01-19T11:34:32.903Z,29.83
2019-01-19T11:37:36.799Z,27.43
2019-01-19T11:40:40.683Z,27.57
2019-01-19T11:43:44.491Z,29.37
2019-01-19T11:46:48.303Z,31.70
2019-01-19T11:49:52.127Z,25.63
2019-01-19T11:52:56.063Z,24.30
2019-01-19T11:56:00.048Z,24.93
2019-01-19T11:59:04.004Z,23.57
2019-01-19T12:02:07.890Z,27.33
2019-01-19T12:05:11.853Z,22.60
2019-01-19T12:08:19.671Z,20.83
2019-01-19T12:11:21.251Z,21.13
2019-01-19T12:14:25.069Z,20.33
2019-01-19T12:17:29.023Z,22.37
2019-01-19T12:20:35.706Z,22.07
2019-01-19T12:23:39.581Z,23.17
2019-01-19T12:26:43.464Z,19.43
2019-01-19T12:29:47.261Z,21.40
2019-01-19T12:32:51.146Z,23.03
2019-01-19T12:35:55.008Z,21.00
2019-01-19T12:38:58.823Z,22.73
2019-01-19T12:42:02.758Z,22.30
2019-01-19T12:45:09.824Z,20.67
2019-01-19T12:48:13.693Z,22.30
2019-01-19T12:51:17.576Z,21.97
2019-01-19T12:54:21.384Z,23.90
2019-01-19T12:57:25.283Z,23.03
2019-01-19T13:00:29.228Z,22.73
2019-01-19T13:03:33.196Z,20.67
2019-01-19T13:06:41.922Z,26.67
2019-01-19T13:09:52.484Z,24.63
2019-01-19T13:13:23.510Z,24.50
2019-01-19T13:17:07.004Z,29.07
2019-01-19T13:20:19.617Z,24.90
2019-01-19T13:23:51.233Z,22.67
2019-01-19T13:27:35.374Z,21.40
2019-01-19T13:31:10.364Z,29.60
2019-01-19T13:35:05.631Z,27.57
2019-01-19T13:38:45.442Z,25.00
2019-01-19T13:42:35.410Z,28.47
2019-01-19T13:46:03.968Z,27.13
2019-01-19T13:50:00.098Z,26.87
2019-01-19T13:53:31.671Z,26.53
2019-01-19T13:57:22.751Z,30.03
2019-01-19T14:00:55.711Z,22.60
2019-01-19T14:04:25.524Z,27.10
2019-01-19T14:08:13.391Z,29.57
2019-01-19T14:11:53.640Z,30.37
2019-01-19T14:15:35.564Z,26.93
2019-01-19T14:19:19.371Z,23.07
2019-01-19T14:23:08.662Z,27.13
2019-01-19T14:26:54.917Z,26.03
2019-01-19T14:30:45.709Z,26.23
2019-01-19T14:34:12.668Z,29.40
2019-01-19T14:37:58.535Z,34.37
2019-01-19T14:41:38.918Z,28.03
2019-01-19T14:45:00.989Z,31.63
2019-01-19T14:49:10.749Z,30.93
2019-01-19T14:52:48.623Z,29.00
2019-01-19T14:56:24.582Z,32.20
2019-01-19T14:59:50.739Z,29.57
2019-01-19T15:03:32.718Z,34.37
2019-01-19T15:07:20.732Z,30.27
2019-01-19T15:10:36.491Z,33.60
2019-01-19T15:14:14.360Z,33.57
2019-01-19T15:18:13.396Z,32.60
2019-01-19T15:21:34.270Z,34.00
2019-01-19T15:24:51.009Z,32.20
2019-01-19T15:28:43.541Z,32.37
2019-01-19T15:32:37.950Z,31.67
2019-01-19T15:36:21.599Z,33.00
2019-01-19T15:39:38.488Z,32.63
2019-01-19T15:43:08.472Z,32.93
2019-01-19T15:46:40.428Z,31.47
2019-01-19T15:50:31.721Z,34.37
2019-01-19T15:54:26.150Z,33.23
2019-01-19T15:58:20.477Z,36.23
2019-01-19T16:02:02.999Z,33.50
2019-01-19T16:05:17.463Z,34.67
2019-01-19T16:08:43.854Z,32.53
2019-01-19T16:12:24.822Z,43.00
2019-01-19T16:16:07.020Z,41.93
2019-01-19T16:19:33.145Z,36.53
2019-01-19T16:23:10.741Z,42.30
2019-01-19T16:26:58.635Z,38.40
2019-01-19T16:30:32.905Z,46.03
2019-01-19T16:34:01.606Z,43.07
2019-01-19T16:37:14.834Z,41.77
2019-01-19T16:40:34.199Z,37.67
2019-01-19T16:44:00.446Z,43.70
2019-01-19T16:47:51.439Z,46.00
2019-01-19T16:51:18.618Z,55.37
2019-01-19T16:54:57.744Z,53.33
2019-01-19T16:58:42.043Z,61.33
2019-01-19T17:02:36.297Z,65.33
2019-01-19T17:06:03.572Z,67.60
2019-01-19T17:09:34.534Z,57.67
2019-01-19T17:13:08.212Z,53.97
2019-01-19T17:17:05.441Z,65.40
2019-01-19T17:20:25.133Z,60.33
2019-01-19T17:24:31.788Z,57.23
2019-01-19T17:28:28.922Z,50.57
2019-01-19T17:32:08.330Z,46.30
2019-01-19T17:35:53.106Z,43.50
2019-01-19T17:39:40.368Z,40.20
2019-01-19T17:43:10.143Z,37.63
2019-01-19T17:46:50.595Z,39.23
2019-01-19T17:50:44.662Z,38.97
2019-01-19T17:54:33.096Z,35.50
2019-01-19T17:58:01.575Z,32.57
2019-01-19T18:01:30.342Z,42.80
2019-01-19T18:05:04.508Z,43.90
2019-01-19T18:08:26.376Z,39.67
2019-01-19T18:11:59.677Z,37.70
2019-01-19T18:15:37.577Z,40.80
2019-01-19T18:19:17.569Z,40.03
2019-01-19T18:22:57.108Z,37.53
2019-01-19T18:26:28.781Z,38.77
2019-01-19T18:30:30.665Z,38.03
2019-01-19T18:34:02.004Z,35.80
2019-01-19T18:37:52.414Z,39.07
2019-01-19T18:41:25.278Z,48.47
2019-01-19T18:44:58.248Z,42.87
2019-01-19T18:49:01.418Z,37.60
2019-01-19T18:52:29.537Z,33.57
2019-01-19T18:56:04.765Z,40.70
2019-01-19T18:59:55.928Z,31.33
2019-01-19T19:03:36.879Z,31.33
2019-01-19T19:07:17.033Z,36.07
2019-01-19T19:10:52.453Z,38.93
2019-01-19T19:14:38.441Z,35.40
2019-01-19T19:18:07.555Z,32.80
2019-01-19T19:21:21.308Z,36.07
2019-01-19T19:25:05.163Z,38.73
2019-01-19T19:28:44.145Z,38.10
2019-01-19T19:31:58.822Z,37.43
2019-01-19T19:35:37.840Z,37.07
2019-01-19T19:39:23.045Z,44.40
2019-01-19T19:43:03.655Z,40.30
2019-01-19T19:46:38.555Z,46.10
2019-01-19T19:50:29.301Z,40.17
2019-01-19T19:53:33.269Z,36.50
2019-01-19T19:56:35.691Z,38.27
2019-01-19T19:59:39.526Z,34.03
2019-01-19T20:02:43.330Z,30.43
2019-01-19T20:05:47.193Z,33.57
2019-01-19T20:08:51.008Z,33.20
2019-01-19T20:12:00.562Z,35.27
2019-01-19T20:15:05.749Z,33.63
2019-01-19T20:18:09.584Z,37.27
2019-01-19T20:21:13.479Z,44.33
2019-01-19T20:24:17.349Z,45.40
2019-01-19T20:27:21.164Z,30.80
2019-01-19T20:30:25.123Z,28.37
2019-01-19T20:33:29.031Z,35.80
2019-01-19T20:36:32.927Z,36.10
2019-01-19T20:39:36.816Z,41.33
2019-01-19T20:42:40.821Z,44.40
2019-01-19T20:45:44.704Z,46.27
2019-01-19T20:48:48.530Z,47.40
2019-01-19T20:51:52.357Z,39.93
2019-01-19T20:54:56.269Z,38.13
2019-01-19T20:58:00.180Z,38.83
2019-01-19T21:01:04.097Z,36.87
2019-01-19T21:04:07.998Z,33.77
2019-01-19T21:07:11.846Z,33.57
2019-01-19T21:10:15.821Z,35.47
2019-01-19T21:13:19.675Z,33.27
2019-01-19T21:16:23.495Z,36.13
2019-01-19T21:19:27.307Z,35.20
2019-01-19T21:22:31.205Z,36.80
2019-01-19T21:25:35.098Z,34.97
2019-01-19T21:28:38.985Z,32.23
2019-01-19T21:31:42.825Z,32.87
2019-01-19T21:34:46.631Z,27.17
2019-01-19T21:37:50.515Z,34.13
2019-01-19T21:40:54.320Z,33.73
2019-01-19T21:43:58.160Z,39.03
2019-01-19T21:47:02.062Z,38.87
2019-01-19T21:50:06.783Z,39.67
2019-01-19T21:53:10.682Z,43.77
2019-01-19T21:56:14.481Z,32.37
2019-01-19T21:59:18.310Z,37.07
2019-01-19T22:02:22.127Z,33.67
2019-01-19T22:05:25.945Z,36.37
2019-01-19T22:08:29.757Z,33.30
2019-01-19T22:11:33.563Z,29.40
2019-01-19T22:14:37.463Z,37.27
2019-01-19T22:17:41.444Z,31.27
2019-01-19T22:20:45.251Z,32.90
2019-01-19T22:23:49.047Z,33.50
2019-01-19T22:26:53.660Z,31.80
2019-01-19T22:29:57.473Z,31.50
2019-01-19T22:33:01.551Z,28.53
2019-01-19T22:36:05.439Z,31.73
2019-01-19T22:39:09.277Z,29.30
2019-01-19T22:42:13.097Z,36.43
2019-01-19T22:45:17.084Z,34.43
2019-01-19T22:48:20.900Z,31.20
2019-01-19T22:51:24.710Z,31.67
2019-01-19T22:54:28.516Z,31.30
2019-01-19T22:57:32.364Z,31.53
2019-01-19T23:01:04.214Z,29.50
2019-01-19T23:04:08.190Z,33.87
2019-01-19T23:07:12.012Z,34.23
2019-01-19T23:10:15.954Z,31.10
2019-01-19T23:13:19.870Z,33.60
2019-01-19T23:16:23.807Z,33.70
2019-01-19T23:19:27.667Z,32.17
2019-01-19T23:22:31.672Z,32.10
2019-01-19T23:25:35.539Z,29.63
2019-01-19T23:28:39.358Z,26.73
2019-01-19T23:31:43.434Z,34.03
2019-01-19T23:34:47.336Z,33.03
2019-01-19T23:37:51.228Z,39.17
2019-01-19T23:40:55.045Z,34.07
2019-01-19T23:43:58.995Z,30.93
2019-01-19T23:47:02.829Z,28.93
2019-01-19T23:50:06.771Z,33.57
2019-01-19T23:53:10.689Z,29.13
2019-01-19T23:56:14.504Z,32.03
2019-01-19T23:59:18.345Z,33.93
